sensor_id;sensor_type;location;lat;lon;timestamp;P1;durP1;ratioP1;P2;durP2;ratioP2
60060;SDS011;45933;51.336;12.612;2023-05-24T00:01:25;9.07;;;2.60;;
60060;SDS011;45933;51.336;12.612;2023-05-24T00:03:51;12.23;;;2.70;;
60060;SDS011;45933;51.336;12.612;2023-05-24T00:06:20;13.57;;;2.97;;
60060;SDS011;45933;51.336;12.612;2023-05-24T00:08:45;11.87;;;2.37;;
60060;SDS011;45933;51.336;12.612;2023-05-24T00:11:11;12.40;;;3.27;;
60060;SDS011;45933;51.336;12.612;2023-05-24T00:13:36;10.03;;;2.27;;
60060;SDS011;45933;51.336;12.612;2023-05-24T00:16:02;9.97;;;2.60;;
60060;SDS011;45933;51.336;12.612;2023-05-24T00:18:27;13.93;;;2.93;;
60060;SDS011;45933;51.336;12.612;2023-05-24T00:20:55;8.43;;;2.70;;
60060;SDS011;45933;51.336;12.612;2023-05-24T00:23:24;12.87;;;2.57;;
60060;SDS011;45933;51.336;12.612;2023-05-24T00:25:50;7.57;;;2.20;;
60060;SDS011;45933;51.336;12.612;2023-05-24T00:28:16;11.50;;;2.13;;
60060;SDS011;45933;51.336;12.612;2023-05-24T00:30:41;12.67;;;2.53;;
60060;SDS011;45933;51.336;12.612;2023-05-24T00:33:06;12.27;;;2.43;;
60060;SDS011;45933;51.336;12.612;2023-05-24T00:35:32;13.13;;;2.53;;
60060;SDS011;45933;51.336;12.612;2023-05-24T00:37:57;10.83;;;2.70;;
60060;SDS011;45933;51.336;12.612;2023-05-24T00:40:23;6.07;;;1.80;;
60060;SDS011;45933;51.336;12.612;2023-05-24T00:42:48;14.67;;;2.93;;
60060;SDS011;45933;51.336;12.612;2023-05-24T00:45:14;8.20;;;2.27;;
60060;SDS011;45933;51.336;12.612;2023-05-24T00:47:39;11.30;;;2.47;;
60060;SDS011;45933;51.336;12.612;2023-05-24T00:50:06;8.87;;;2.60;;
60060;SDS011;45933;51.336;12.612;2023-05-24T00:52:32;10.70;;;2.60;;
60060;SDS011;45933;51.336;12.612;2023-05-24T00:54:57;9.70;;;2.63;;
60060;SDS011;45933;51.336;12.612;2023-05-24T00:57:23;11.67;;;2.63;;
60060;SDS011;45933;51.336;12.612;2023-05-24T00:59:49;10.73;;;2.57;;
60060;SDS011;45933;51.336;12.612;2023-05-24T01:02:14;12.00;;;2.50;;
60060;SDS011;45933;51.336;12.612;2023-05-24T01:04:40;15.33;;;2.50;;
60060;SDS011;45933;51.336;12.612;2023-05-24T01:07:21;12.43;;;2.50;;
60060;SDS011;45933;51.336;12.612;2023-05-24T01:10:02;10.03;;;2.60;;
60060;SDS011;45933;51.336;12.612;2023-05-24T01:12:31;10.53;;;2.60;;
60060;SDS011;45933;51.336;12.612;2023-05-24T01:15:24;13.93;;;3.07;;
60060;SDS011;45933;51.336;12.612;2023-05-24T01:18:01;13.33;;;3.60;;
60060;SDS011;45933;51.336;12.612;2023-05-24T01:20:32;8.90;;;2.60;;
60060;SDS011;45933;51.336;12.612;2023-05-24T01:23:16;12.30;;;2.67;;
60060;SDS011;45933;51.336;12.612;2023-05-24T01:25:59;11.10;;;2.30;;
60060;SDS011;45933;51.336;12.612;2023-05-24T01:28:32;9.30;;;2.23;;
60060;SDS011;45933;51.336;12.612;2023-05-24T01:30:59;11.73;;;2.93;;
60060;SDS011;45933;51.336;12.612;2023-05-24T01:33:24;9.27;;;2.70;;
60060;SDS011;45933;51.336;12.612;2023-05-24T01:35:50;13.90;;;2.90;;
60060;SDS011;45933;51.336;12.612;2023-05-24T01:38:15;16.57;;;2.73;;
60060;SDS011;45933;51.336;12.612;2023-05-24T01:40:40;10.63;;;2.80;;
60060;SDS011;45933;51.336;12.612;2023-05-24T01:46:01;15.37;;;2.50;;
60060;SDS011;45933;51.336;12.612;2023-05-24T01:48:33;11.50;;;2.67;;
60060;SDS011;45933;51.336;12.612;2023-05-24T01:51:09;12.23;;;2.80;;
60060;SDS011;45933;51.336;12.612;2023-05-24T01:53:40;11.50;;;2.90;;
60060;SDS011;45933;51.336;12.612;2023-05-24T01:56:11;11.47;;;2.83;;
60060;SDS011;45933;51.336;12.612;2023-05-24T01:58:38;10.20;;;2.20;;
60060;SDS011;45933;51.336;12.612;2023-05-24T02:01:05;11.43;;;2.90;;
60060;SDS011;45933;51.336;12.612;2023-05-24T02:03:32;13.77;;;2.90;;
60060;SDS011;45933;51.336;12.612;2023-05-24T02:05:57;11.30;;;2.63;;
60060;SDS011;45933;51.336;12.612;2023-05-24T02:08:22;12.70;;;2.90;;
60060;SDS011;45933;51.336;12.612;2023-05-24T02:10:48;13.70;;;2.40;;
60060;SDS011;45933;51.336;12.612;2023-05-24T02:13:13;12.50;;;2.70;;
60060;SDS011;45933;51.336;12.612;2023-05-24T02:15:41;11.60;;;2.40;;
60060;SDS011;45933;51.336;12.612;2023-05-24T02:18:08;10.03;;;2.73;;
60060;SDS011;45933;51.336;12.612;2023-05-24T02:20:35;13.37;;;2.60;;
60060;SDS011;45933;51.336;12.612;2023-05-24T02:23:01;11.33;;;2.70;;
60060;SDS011;45933;51.336;12.612;2023-05-24T02:25:27;11.67;;;2.40;;
60060;SDS011;45933;51.336;12.612;2023-05-24T02:27:53;11.17;;;2.63;;
60060;SDS011;45933;51.336;12.612;2023-05-24T02:30:18;12.47;;;2.83;;
60060;SDS011;45933;51.336;12.612;2023-05-24T02:32:43;11.53;;;3.53;;
60060;SDS011;45933;51.336;12.612;2023-05-24T02:35:09;15.80;;;2.83;;
60060;SDS011;45933;51.336;12.612;2023-05-24T02:37:34;10.57;;;2.40;;
60060;SDS011;45933;51.336;12.612;2023-05-24T02:40:00;14.23;;;2.83;;
60060;SDS011;45933;51.336;12.612;2023-05-24T02:42:25;10.73;;;2.73;;
60060;SDS011;45933;51.336;12.612;2023-05-24T02:44:50;7.77;;;2.20;;
60060;SDS011;45933;51.336;12.612;2023-05-24T02:47:17;13.47;;;2.20;;
60060;SDS011;45933;51.336;12.612;2023-05-24T02:49:42;15.67;;;3.00;;
60060;SDS011;45933;51.336;12.612;2023-05-24T02:52:08;11.60;;;2.67;;
60060;SDS011;45933;51.336;12.612;2023-05-24T02:54:33;9.70;;;2.43;;
60060;SDS011;45933;51.336;12.612;2023-05-24T02:56:58;10.93;;;2.17;;
60060;SDS011;45933;51.336;12.612;2023-05-24T02:59:25;14.07;;;2.77;;
60060;SDS011;45933;51.336;12.612;2023-05-24T03:01:50;20.60;;;3.60;;
60060;SDS011;45933;51.336;12.612;2023-05-24T03:04:16;12.53;;;3.07;;
60060;SDS011;45933;51.336;12.612;2023-05-24T03:06:41;12.57;;;2.40;;
60060;SDS011;45933;51.336;12.612;2023-05-24T03:09:06;15.67;;;2.63;;
60060;SDS011;45933;51.336;12.612;2023-05-24T03:11:32;10.23;;;2.67;;
60060;SDS011;45933;51.336;12.612;2023-05-24T03:13:57;11.50;;;2.80;;
60060;SDS011;45933;51.336;12.612;2023-05-24T03:16:22;17.70;;;2.73;;
60060;SDS011;45933;51.336;12.612;2023-05-24T03:18:49;7.87;;;2.40;;
60060;SDS011;45933;51.336;12.612;2023-05-24T03:21:15;10.67;;;3.00;;
60060;SDS011;45933;51.336;12.612;2023-05-24T03:23:40;12.33;;;2.37;;
60060;SDS011;45933;51.336;12.612;2023-05-24T03:26:06;12.27;;;2.50;;
60060;SDS011;45933;51.336;12.612;2023-05-24T03:28:31;12.90;;;3.30;;
60060;SDS011;45933;51.336;12.612;2023-05-24T03:30:57;13.80;;;3.07;;
60060;SDS011;45933;51.336;12.612;2023-05-24T03:33:23;12.87;;;3.17;;
60060;SDS011;45933;51.336;12.612;2023-05-24T03:35:48;17.03;;;3.50;;
60060;SDS011;45933;51.336;12.612;2023-05-24T03:38:13;15.77;;;2.73;;
60060;SDS011;45933;51.336;12.612;2023-05-24T03:40:38;14.07;;;3.03;;
60060;SDS011;45933;51.336;12.612;2023-05-24T03:43:04;14.37;;;2.47;;
60060;SDS011;45933;51.336;12.612;2023-05-24T03:45:29;13.57;;;2.90;;
60060;SDS011;45933;51.336;12.612;2023-05-24T03:47:54;12.93;;;3.17;;
60060;SDS011;45933;51.336;12.612;2023-05-24T03:50:20;15.37;;;3.10;;
60060;SDS011;45933;51.336;12.612;2023-05-24T03:52:45;16.07;;;2.83;;
60060;SDS011;45933;51.336;12.612;2023-05-24T03:55:11;12.57;;;2.63;;
60060;SDS011;45933;51.336;12.612;2023-05-24T03:57:38;15.23;;;3.37;;
60060;SDS011;45933;51.336;12.612;2023-05-24T04:00:05;13.93;;;3.47;;
60060;SDS011;45933;51.336;12.612;2023-05-24T04:02:31;14.13;;;2.77;;
60060;SDS011;45933;51.336;12.612;2023-05-24T04:04:56;11.20;;;3.40;;
60060;SDS011;45933;51.336;12.612;2023-05-24T04:07:22;14.77;;;3.53;;
60060;SDS011;45933;51.336;12.612;2023-05-24T04:09:48;14.60;;;3.30;;
60060;SDS011;45933;51.336;12.612;2023-05-24T04:12:13;12.57;;;3.13;;
60060;SDS011;45933;51.336;12.612;2023-05-24T04:14:39;12.57;;;3.10;;
60060;SDS011;45933;51.336;12.612;2023-05-24T04:17:04;16.83;;;3.17;;
60060;SDS011;45933;51.336;12.612;2023-05-24T04:19:30;14.17;;;3.20;;
60060;SDS011;45933;51.336;12.612;2023-05-24T04:21:55;13.50;;;3.27;;
60060;SDS011;45933;51.336;12.612;2023-05-24T04:24:21;11.07;;;2.50;;
60060;SDS011;45933;51.336;12.612;2023-05-24T04:26:46;11.93;;;2.67;;
60060;SDS011;45933;51.336;12.612;2023-05-24T04:29:11;21.03;;;3.50;;
60060;SDS011;45933;51.336;12.612;2023-05-24T04:31:37;14.97;;;3.83;;
60060;SDS011;45933;51.336;12.612;2023-05-24T04:34:07;10.13;;;2.90;;
60060;SDS011;45933;51.336;12.612;2023-05-24T04:36:34;18.70;;;3.30;;
60060;SDS011;45933;51.336;12.612;2023-05-24T04:38:59;13.27;;;3.50;;
60060;SDS011;45933;51.336;12.612;2023-05-24T04:41:28;9.37;;;2.77;;
60060;SDS011;45933;51.336;12.612;2023-05-24T04:43:56;11.80;;;3.10;;
60060;SDS011;45933;51.336;12.612;2023-05-24T04:46:23;14.73;;;3.17;;
60060;SDS011;45933;51.336;12.612;2023-05-24T04:48:49;18.07;;;3.57;;
60060;SDS011;45933;51.336;12.612;2023-05-24T04:51:15;21.40;;;3.83;;
60060;SDS011;45933;51.336;12.612;2023-05-24T04:53:40;15.30;;;3.70;;
60060;SDS011;45933;51.336;12.612;2023-05-24T04:56:06;17.33;;;3.87;;
60060;SDS011;45933;51.336;12.612;2023-05-24T04:58:32;23.90;;;4.33;;
60060;SDS011;45933;51.336;12.612;2023-05-24T05:00:57;15.83;;;3.50;;
60060;SDS011;45933;51.336;12.612;2023-05-24T05:03:23;17.50;;;3.80;;
60060;SDS011;45933;51.336;12.612;2023-05-24T05:05:48;16.27;;;3.27;;
60060;SDS011;45933;51.336;12.612;2023-05-24T05:08:13;16.13;;;3.93;;
60060;SDS011;45933;51.336;12.612;2023-05-24T05:10:39;14.77;;;3.53;;
60060;SDS011;45933;51.336;12.612;2023-05-24T05:13:04;15.43;;;3.10;;
60060;SDS011;45933;51.336;12.612;2023-05-24T05:15:30;17.73;;;3.63;;
60060;SDS011;45933;51.336;12.612;2023-05-24T05:17:56;15.17;;;3.97;;
60060;SDS011;45933;51.336;12.612;2023-05-24T05:20:21;20.63;;;3.80;;
60060;SDS011;45933;51.336;12.612;2023-05-24T05:22:47;18.17;;;4.10;;
60060;SDS011;45933;51.336;12.612;2023-05-24T05:25:13;15.43;;;3.20;;
60060;SDS011;45933;51.336;12.612;2023-05-24T05:27:38;17.67;;;3.93;;
60060;SDS011;45933;51.336;12.612;2023-05-24T05:30:03;17.60;;;3.93;;
60060;SDS011;45933;51.336;12.612;2023-05-24T05:32:29;16.67;;;3.67;;
60060;SDS011;45933;51.336;12.612;2023-05-24T05:34:54;18.00;;;4.07;;
60060;SDS011;45933;51.336;12.612;2023-05-24T05:37:20;22.77;;;4.63;;
60060;SDS011;45933;51.336;12.612;2023-05-24T05:39:45;19.80;;;4.27;;
60060;SDS011;45933;51.336;12.612;2023-05-24T05:42:10;17.67;;;4.27;;
60060;SDS011;45933;51.336;12.612;2023-05-24T05:44:36;18.13;;;3.47;;
60060;SDS011;45933;51.336;12.612;2023-05-24T05:47:01;19.53;;;3.73;;
60060;SDS011;45933;51.336;12.612;2023-05-24T05:49:27;18.40;;;4.17;;
60060;SDS011;45933;51.336;12.612;2023-05-24T05:51:53;13.60;;;3.87;;
60060;SDS011;45933;51.336;12.612;2023-05-24T05:54:18;16.13;;;4.00;;
60060;SDS011;45933;51.336;12.612;2023-05-24T05:56:44;16.00;;;4.43;;
60060;SDS011;45933;51.336;12.612;2023-05-24T05:59:11;14.03;;;3.63;;
60060;SDS011;45933;51.336;12.612;2023-05-24T06:01:38;18.83;;;3.87;;
60060;SDS011;45933;51.336;12.612;2023-05-24T06:04:04;17.27;;;3.60;;
60060;SDS011;45933;51.336;12.612;2023-05-24T06:06:29;15.87;;;3.87;;
60060;SDS011;45933;51.336;12.612;2023-05-24T06:08:55;24.20;;;5.20;;
60060;SDS011;45933;51.336;12.612;2023-05-24T06:11:20;15.73;;;4.00;;
60060;SDS011;45933;51.336;12.612;2023-05-24T06:13:46;17.43;;;4.10;;
60060;SDS011;45933;51.336;12.612;2023-05-24T06:16:11;17.93;;;4.73;;
60060;SDS011;45933;51.336;12.612;2023-05-24T06:18:36;16.03;;;4.03;;
60060;SDS011;45933;51.336;12.612;2023-05-24T06:21:01;23.23;;;4.43;;
60060;SDS011;45933;51.336;12.612;2023-05-24T06:23:27;13.20;;;3.57;;
60060;SDS011;45933;51.336;12.612;2023-05-24T06:25:52;20.57;;;3.70;;
60060;SDS011;45933;51.336;12.612;2023-05-24T06:28:17;20.10;;;4.47;;
60060;SDS011;45933;51.336;12.612;2023-05-24T06:30:43;18.37;;;3.70;;
60060;SDS011;45933;51.336;12.612;2023-05-24T06:33:08;18.60;;;3.60;;
60060;SDS011;45933;51.336;12.612;2023-05-24T06:35:34;20.83;;;4.40;;
60060;SDS011;45933;51.336;12.612;2023-05-24T06:37:59;16.50;;;3.97;;
60060;SDS011;45933;51.336;12.612;2023-05-24T06:40:24;16.83;;;3.70;;
60060;SDS011;45933;51.336;12.612;2023-05-24T06:42:50;16.83;;;3.67;;
60060;SDS011;45933;51.336;12.612;2023-05-24T06:45:15;17.40;;;3.97;;
60060;SDS011;45933;51.336;12.612;2023-05-24T06:47:40;17.67;;;4.60;;
60060;SDS011;45933;51.336;12.612;2023-05-24T06:50:06;14.83;;;4.67;;
60060;SDS011;45933;51.336;12.612;2023-05-24T06:52:32;15.97;;;4.43;;
60060;SDS011;45933;51.336;12.612;2023-05-24T06:54:57;16.97;;;3.87;;
60060;SDS011;45933;51.336;12.612;2023-05-24T06:57:23;14.53;;;3.50;;
60060;SDS011;45933;51.336;12.612;2023-05-24T06:59:49;17.83;;;3.93;;
60060;SDS011;45933;51.336;12.612;2023-05-24T07:02:14;19.05;;;4.68;;
60060;SDS011;45933;51.336;12.612;2023-05-24T07:04:40;14.27;;;3.90;;
60060;SDS011;45933;51.336;12.612;2023-05-24T07:07:06;17.60;;;4.00;;
60060;SDS011;45933;51.336;12.612;2023-05-24T07:09:32;22.27;;;3.95;;
60060;SDS011;45933;51.336;12.612;2023-05-24T07:11:58;19.17;;;4.65;;
60060;SDS011;45933;51.336;12.612;2023-05-24T07:14:23;15.38;;;3.88;;
60060;SDS011;45933;51.336;12.612;2023-05-24T07:16:50;14.30;;;4.40;;
60060;SDS011;45933;51.336;12.612;2023-05-24T07:19:15;19.67;;;4.20;;
60060;SDS011;45933;51.336;12.612;2023-05-24T07:21:40;16.35;;;3.88;;
60060;SDS011;45933;51.336;12.612;2023-05-24T07:24:05;15.57;;;3.67;;
60060;SDS011;45933;51.336;12.612;2023-05-24T07:26:31;14.85;;;4.03;;
60060;SDS011;45933;51.336;12.612;2023-05-24T07:28:56;15.57;;;4.43;;
60060;SDS011;45933;51.336;12.612;2023-05-24T07:31:21;19.40;;;4.35;;
60060;SDS011;45933;51.336;12.612;2023-05-24T07:33:47;12.98;;;3.28;;
60060;SDS011;45933;51.336;12.612;2023-05-24T07:36:12;17.83;;;3.67;;
60060;SDS011;45933;51.336;12.612;2023-05-24T07:38:39;16.42;;;4.15;;
60060;SDS011;45933;51.336;12.612;2023-05-24T07:41:05;19.85;;;5.95;;
60060;SDS011;45933;51.336;12.612;2023-05-24T07:43:31;13.68;;;3.97;;
60060;SDS011;45933;51.336;12.612;2023-05-24T07:45:56;15.55;;;4.00;;
60060;SDS011;45933;51.336;12.612;2023-05-24T07:48:22;14.82;;;3.40;;
60060;SDS011;45933;51.336;12.612;2023-05-24T07:50:50;16.75;;;3.78;;
60060;SDS011;45933;51.336;12.612;2023-05-24T07:53:16;15.70;;;4.43;;
60060;SDS011;45933;51.336;12.612;2023-05-24T07:55:42;21.33;;;3.75;;
60060;SDS011;45933;51.336;12.612;2023-05-24T07:58:08;14.20;;;4.00;;
60060;SDS011;45933;51.336;12.612;2023-05-24T08:00:34;13.40;;;3.72;;
60060;SDS011;45933;51.336;12.612;2023-05-24T08:03:00;13.90;;;3.47;;
60060;SDS011;45933;51.336;12.612;2023-05-24T08:05:25;14.05;;;3.75;;
60060;SDS011;45933;51.336;12.612;2023-05-24T08:07:51;18.55;;;3.60;;
60060;SDS011;45933;51.336;12.612;2023-05-24T08:10:17;12.70;;;3.28;;
60060;SDS011;45933;51.336;12.612;2023-05-24T08:12:42;13.88;;;3.83;;
60060;SDS011;45933;51.336;12.612;2023-05-24T08:15:08;17.40;;;4.00;;
60060;SDS011;45933;51.336;12.612;2023-05-24T08:17:34;16.70;;;3.95;;
60060;SDS011;45933;51.336;12.612;2023-05-24T08:19:59;20.70;;;5.05;;
60060;SDS011;45933;51.336;12.612;2023-05-24T08:22:24;14.05;;;4.47;;
60060;SDS011;45933;51.336;12.612;2023-05-24T08:24:50;15.73;;;3.42;;
60060;SDS011;45933;51.336;12.612;2023-05-24T08:27:16;18.85;;;4.50;;
60060;SDS011;45933;51.336;12.612;2023-05-24T08:29:41;17.98;;;4.90;;
60060;SDS011;45933;51.336;12.612;2023-05-24T08:32:06;14.95;;;4.25;;
60060;SDS011;45933;51.336;12.612;2023-05-24T08:34:34;16.23;;;4.25;;
60060;SDS011;45933;51.336;12.612;2023-05-24T08:37:05;13.68;;;3.67;;
60060;SDS011;45933;51.336;12.612;2023-05-24T08:39:31;14.95;;;4.10;;
60060;SDS011;45933;51.336;12.612;2023-05-24T08:41:56;18.55;;;4.05;;
60060;SDS011;45933;51.336;12.612;2023-05-24T08:44:22;14.35;;;3.90;;
60060;SDS011;45933;51.336;12.612;2023-05-24T08:46:49;16.83;;;4.38;;
60060;SDS011;45933;51.336;12.612;2023-05-24T08:49:15;13.57;;;4.15;;
60060;SDS011;45933;51.336;12.612;2023-05-24T08:51:42;12.90;;;3.97;;
60060;SDS011;45933;51.336;12.612;2023-05-24T08:54:09;18.75;;;4.65;;
60060;SDS011;45933;51.336;12.612;2023-05-24T08:56:38;14.60;;;4.25;;
60060;SDS011;45933;51.336;12.612;2023-05-24T08:59:05;11.20;;;3.90;;
60060;SDS011;45933;51.336;12.612;2023-05-24T09:01:30;12.60;;;3.80;;
60060;SDS011;45933;51.336;12.612;2023-05-24T09:03:56;11.93;;;3.50;;
60060;SDS011;45933;51.336;12.612;2023-05-24T09:06:23;10.77;;;3.55;;
60060;SDS011;45933;51.336;12.612;2023-05-24T09:08:49;15.73;;;3.92;;
60060;SDS011;45933;51.336;12.612;2023-05-24T09:11:17;14.88;;;3.97;;
60060;SDS011;45933;51.336;12.612;2023-05-24T09:13:43;12.43;;;3.95;;
60060;SDS011;45933;51.336;12.612;2023-05-24T09:16:09;14.60;;;3.97;;
60060;SDS011;45933;51.336;12.612;2023-05-24T09:18:35;14.88;;;4.10;;
60060;SDS011;45933;51.336;12.612;2023-05-24T09:21:00;24.48;;;4.72;;
60060;SDS011;45933;51.336;12.612;2023-05-24T09:23:26;17.38;;;4.55;;
60060;SDS011;45933;51.336;12.612;2023-05-24T09:25:51;11.93;;;3.80;;
60060;SDS011;45933;51.336;12.612;2023-05-24T09:28:17;15.75;;;4.68;;
60060;SDS011;45933;51.336;12.612;2023-05-24T09:30:59;14.15;;;4.20;;
60060;SDS011;45933;51.336;12.612;2023-05-24T09:33:27;11.40;;;3.72;;
60060;SDS011;45933;51.336;12.612;2023-05-24T09:36:01;17.60;;;4.38;;
60060;SDS011;45933;51.336;12.612;2023-05-24T09:38:28;14.75;;;3.75;;
60060;SDS011;45933;51.336;12.612;2023-05-24T09:41:06;15.18;;;3.33;;
60060;SDS011;45933;51.336;12.612;2023-05-24T09:43:33;15.55;;;4.72;;
60060;SDS011;45933;51.336;12.612;2023-05-24T09:46:15;15.10;;;4.03;;
60060;SDS011;45933;51.336;12.612;2023-05-24T09:48:44;11.30;;;3.67;;
60060;SDS011;45933;51.336;12.612;2023-05-24T09:51:20;12.07;;;3.88;;
60060;SDS011;45933;51.336;12.612;2023-05-24T09:53:46;13.23;;;3.78;;
60060;SDS011;45933;51.336;12.612;2023-05-24T09:56:12;16.73;;;4.13;;
60060;SDS011;45933;51.336;12.612;2023-05-24T09:58:38;15.57;;;4.57;;
60060;SDS011;45933;51.336;12.612;2023-05-24T10:01:04;13.57;;;4.00;;
60060;SDS011;45933;51.336;12.612;2023-05-24T10:03:31;12.68;;;4.13;;
60060;SDS011;45933;51.336;12.612;2023-05-24T10:05:57;13.75;;;4.43;;
60060;SDS011;45933;51.336;12.612;2023-05-24T10:08:22;13.93;;;3.53;;
60060;SDS011;45933;51.336;12.612;2023-05-24T10:10:48;11.75;;;3.88;;
60060;SDS011;45933;51.336;12.612;2023-05-24T10:13:13;15.95;;;4.80;;
60060;SDS011;45933;51.336;12.612;2023-05-24T10:15:42;11.63;;;4.07;;
60060;SDS011;45933;51.336;12.612;2023-05-24T10:18:08;19.67;;;4.38;;
60060;SDS011;45933;51.336;12.612;2023-05-24T10:20:33;14.80;;;4.40;;
60060;SDS011;45933;51.336;12.612;2023-05-24T10:22:59;14.50;;;4.20;;
60060;SDS011;45933;51.336;12.612;2023-05-24T10:25:28;14.48;;;3.80;;
60060;SDS011;45933;51.336;12.612;2023-05-24T10:27:56;10.15;;;3.50;;
60060;SDS011;45933;51.336;12.612;2023-05-24T10:30:33;13.75;;;3.72;;
60060;SDS011;45933;51.336;12.612;2023-05-24T10:33:02;14.15;;;4.20;;
60060;SDS011;45933;51.336;12.612;2023-05-24T10:35:30;16.60;;;4.60;;
60060;SDS011;45933;51.336;12.612;2023-05-24T10:37:57;16.73;;;4.43;;
60060;SDS011;45933;51.336;12.612;2023-05-24T10:40:23;18.83;;;4.85;;
60060;SDS011;45933;51.336;12.612;2023-05-24T10:42:50;14.90;;;4.10;;
60060;SDS011;45933;51.336;12.612;2023-05-24T10:45:58;18.40;;;4.50;;
60060;SDS011;45933;51.336;12.612;2023-05-24T10:48:08;12.27;;;4.15;;
60060;SDS011;45933;51.336;12.612;2023-05-24T10:50:52;12.57;;;4.40;;
60060;SDS011;45933;51.336;12.612;2023-05-24T10:53:19;13.95;;;5.03;;
60060;SDS011;45933;51.336;12.612;2023-05-24T11:01:01;16.42;;;4.68;;
60060;SDS011;45933;51.336;12.612;2023-05-24T11:03:31;12.20;;;3.95;;
60060;SDS011;45933;51.336;12.612;2023-05-24T11:05:57;13.27;;;4.22;;
60060;SDS011;45933;51.336;12.612;2023-05-24T11:08:32;15.75;;;4.72;;
60060;SDS011;45933;51.336;12.612;2023-05-24T11:11:06;13.15;;;4.32;;
60060;SDS011;45933;51.336;12.612;2023-05-24T11:13:36;13.27;;;4.75;;
60060;SDS011;45933;51.336;12.612;2023-05-24T11:16:04;13.73;;;4.53;;
60060;SDS011;45933;51.336;12.612;2023-05-24T11:18:30;12.07;;;4.57;;
60060;SDS011;45933;51.336;12.612;2023-05-24T11:20:57;15.68;;;5.18;;
60060;SDS011;45933;51.336;12.612;2023-05-24T11:23:23;11.35;;;4.78;;
60060;SDS011;45933;51.336;12.612;2023-05-24T11:25:49;14.07;;;5.05;;
60060;SDS011;45933;51.336;12.612;2023-05-24T11:28:14;15.80;;;4.85;;
60060;SDS011;45933;51.336;12.612;2023-05-24T11:30:40;11.45;;;4.50;;
60060;SDS011;45933;51.336;12.612;2023-05-24T11:33:19;14.35;;;4.95;;
60060;SDS011;45933;51.336;12.612;2023-05-24T11:35:46;15.23;;;4.88;;
60060;SDS011;45933;51.336;12.612;2023-05-24T11:38:14;14.80;;;4.85;;
60060;SDS011;45933;51.336;12.612;2023-05-24T11:40:42;13.90;;;4.13;;
60060;SDS011;45933;51.336;12.612;2023-05-24T11:43:12;9.30;;;3.88;;
60060;SDS011;45933;51.336;12.612;2023-05-24T11:45:42;11.48;;;4.97;;
60060;SDS011;45933;51.336;12.612;2023-05-24T11:48:09;10.27;;;4.28;;
60060;SDS011;45933;51.336;12.612;2023-05-24T11:50:39;12.30;;;4.47;;
60060;SDS011;45933;51.336;12.612;2023-05-24T11:53:08;14.95;;;4.38;;
60060;SDS011;45933;51.336;12.612;2023-05-24T11:55:38;14.13;;;4.82;;
60060;SDS011;45933;51.336;12.612;2023-05-24T11:58:06;10.70;;;4.10;;
60060;SDS011;45933;51.336;12.612;2023-05-24T12:00:36;15.82;;;4.88;;
60060;SDS011;45933;51.336;12.612;2023-05-24T12:03:02;12.98;;;5.07;;
60060;SDS011;45933;51.336;12.612;2023-05-24T12:05:31;13.88;;;3.92;;
60060;SDS011;45933;51.336;12.612;2023-05-24T12:08:00;11.50;;;3.90;;
60060;SDS011;45933;51.336;12.612;2023-05-24T12:10:28;9.23;;;3.55;;
60060;SDS011;45933;51.336;12.612;2023-05-24T12:12:55;10.23;;;3.42;;
60060;SDS011;45933;51.336;12.612;2023-05-24T12:15:21;9.77;;;3.75;;
60060;SDS011;45933;51.336;12.612;2023-05-24T12:17:46;10.73;;;4.13;;
60060;SDS011;45933;51.336;12.612;2023-05-24T12:20:16;7.55;;;3.78;;
60060;SDS011;45933;51.336;12.612;2023-05-24T12:22:49;9.95;;;3.80;;
60060;SDS011;45933;51.336;12.612;2023-05-24T12:25:17;7.72;;;3.55;;
60060;SDS011;45933;51.336;12.612;2023-05-24T12:27:46;13.50;;;4.30;;
60060;SDS011;45933;51.336;12.612;2023-05-24T12:30:16;13.35;;;4.03;;
60060;SDS011;45933;51.336;12.612;2023-05-24T12:32:46;9.35;;;3.75;;
60060;SDS011;45933;51.336;12.612;2023-05-24T12:35:12;12.45;;;4.53;;
60060;SDS011;45933;51.336;12.612;2023-05-24T12:37:37;11.25;;;4.45;;
60060;SDS011;45933;51.336;12.612;2023-05-24T12:40:13;10.40;;;4.18;;
60060;SDS011;45933;51.336;12.612;2023-05-24T12:42:44;14.23;;;4.90;;
60060;SDS011;45933;51.336;12.612;2023-05-24T12:45:21;10.32;;;3.72;;
60060;SDS011;45933;51.336;12.612;2023-05-24T12:47:49;14.10;;;3.85;;
60060;SDS011;45933;51.336;12.612;2023-05-24T12:50:16;8.75;;;3.75;;
60060;SDS011;45933;51.336;12.612;2023-05-24T12:52:42;8.02;;;2.88;;
60060;SDS011;45933;51.336;12.612;2023-05-24T12:55:10;8.75;;;3.75;;
60060;SDS011;45933;51.336;12.612;2023-05-24T12:57:36;9.13;;;3.50;;
60060;SDS011;45933;51.336;12.612;2023-05-24T13:00:02;9.50;;;3.50;;
60060;SDS011;45933;51.336;12.612;2023-05-24T13:02:28;6.80;;;3.38;;
60060;SDS011;45933;51.336;12.612;2023-05-24T13:04:53;8.93;;;3.22;;
60060;SDS011;45933;51.336;12.612;2023-05-24T13:07:18;8.05;;;3.00;;
60060;SDS011;45933;51.336;12.612;2023-05-24T13:09:43;11.98;;;3.25;;
60060;SDS011;45933;51.336;12.612;2023-05-24T13:12:09;7.13;;;3.60;;
60060;SDS011;45933;51.336;12.612;2023-05-24T13:14:35;8.63;;;3.22;;
60060;SDS011;45933;51.336;12.612;2023-05-24T13:17:00;9.43;;;3.55;;
60060;SDS011;45933;51.336;12.612;2023-05-24T13:19:25;9.85;;;2.83;;
60060;SDS011;45933;51.336;12.612;2023-05-24T13:21:51;5.18;;;2.70;;
60060;SDS011;45933;51.336;12.612;2023-05-24T13:24:16;7.53;;;2.90;;
60060;SDS011;45933;51.336;12.612;2023-05-24T13:26:41;6.72;;;2.83;;
60060;SDS011;45933;51.336;12.612;2023-05-24T13:29:07;5.00;;;2.30;;
60060;SDS011;45933;51.336;12.612;2023-05-24T13:31:32;6.88;;;3.25;;
60060;SDS011;45933;51.336;12.612;2023-05-24T13:33:57;6.10;;;2.50;;
60060;SDS011;45933;51.336;12.612;2023-05-24T13:36:23;6.13;;;2.60;;
60060;SDS011;45933;51.336;12.612;2023-05-24T13:38:48;8.05;;;2.75;;
60060;SDS011;45933;51.336;12.612;2023-05-24T13:41:13;7.32;;;2.47;;
60060;SDS011;45933;51.336;12.612;2023-05-24T13:43:38;6.72;;;2.80;;
60060;SDS011;45933;51.336;12.612;2023-05-24T13:46:04;9.73;;;4.03;;
60060;SDS011;45933;51.336;12.612;2023-05-24T13:48:29;9.07;;;3.20;;
60060;SDS011;45933;51.336;12.612;2023-05-24T13:50:54;7.13;;;2.85;;
60060;SDS011;45933;51.336;12.612;2023-05-24T13:53:20;6.78;;;2.95;;
60060;SDS011;45933;51.336;12.612;2023-05-24T13:55:46;7.50;;;2.80;;
60060;SDS011;45933;51.336;12.612;2023-05-24T13:58:11;8.75;;;3.15;;
60060;SDS011;45933;51.336;12.612;2023-05-24T14:00:37;6.93;;;2.70;;
60060;SDS011;45933;51.336;12.612;2023-05-24T14:03:02;7.07;;;2.85;;
60060;SDS011;45933;51.336;12.612;2023-05-24T14:05:29;8.20;;;2.83;;
60060;SDS011;45933;51.336;12.612;2023-05-24T14:07:56;8.75;;;3.50;;
60060;SDS011;45933;51.336;12.612;2023-05-24T14:10:24;7.88;;;3.05;;
60060;SDS011;45933;51.336;12.612;2023-05-24T14:12:49;10.32;;;2.90;;
60060;SDS011;45933;51.336;12.612;2023-05-24T14:15:15;8.23;;;3.03;;
60060;SDS011;45933;51.336;12.612;2023-05-24T14:17:40;5.07;;;3.03;;
60060;SDS011;45933;51.336;12.612;2023-05-24T14:20:06;7.32;;;3.08;;
60060;SDS011;45933;51.336;12.612;2023-05-24T14:22:31;7.45;;;3.10;;
60060;SDS011;45933;51.336;12.612;2023-05-24T14:24:57;8.32;;;2.97;;
60060;SDS011;45933;51.336;12.612;2023-05-24T14:27:23;11.45;;;3.28;;
60060;SDS011;45933;51.336;12.612;2023-05-24T14:29:48;7.63;;;3.28;;